sensor_id;sensor_type;location;lat;lon;timestamp;P1;durP1;ratioP1;P2;durP2;ratioP2
63016;SDS011;50274;45.640;11.756;2024-01-07T00:00:27;6.15;;;2.03;;
63016;SDS011;50274;45.640;11.756;2024-01-07T00:02:53;6.50;;;2.33;;
63016;SDS011;50274;45.640;11.756;2024-01-07T00:05:18;5.43;;;2.15;;
63016;SDS011;50274;45.640;11.756;2024-01-07T00:07:44;4.85;;;1.92;;
63016;SDS011;50274;45.640;11.756;2024-01-07T00:10:10;4.50;;;1.70;;
63016;SDS011;50274;45.640;11.756;2024-01-07T00:12:36;5.68;;;1.77;;
63016;SDS011;50274;45.640;11.756;2024-01-07T00:15:02;4.37;;;1.80;;
63016;SDS011;50274;45.640;11.756;2024-01-07T00:17:28;4.33;;;1.77;;
63016;SDS011;50274;45.640;11.756;2024-01-07T00:19:54;5.03;;;1.80;;
63016;SDS011;50274;45.640;11.756;2024-01-07T00:22:19;4.60;;;1.50;;
63016;SDS011;50274;45.640;11.756;2024-01-07T00:24:45;4.13;;;1.33;;
63016;SDS011;50274;45.640;11.756;2024-01-07T00:27:11;3.97;;;1.33;;
63016;SDS011;50274;45.640;11.756;2024-01-07T00:29:37;3.43;;;1.00;;
63016;SDS011;50274;45.640;11.756;2024-01-07T00:32:03;3.55;;;0.70;;
63016;SDS011;50274;45.640;11.756;2024-01-07T00:34:29;3.63;;;0.82;;
63016;SDS011;50274;45.640;11.756;2024-01-07T00:36:54;3.13;;;0.80;;
63016;SDS011;50274;45.640;11.756;2024-01-07T00:39:20;3.70;;;0.60;;
63016;SDS011;50274;45.640;11.756;2024-01-07T00:41:46;2.87;;;0.63;;
63016;SDS011;50274;45.640;11.756;2024-01-07T00:44:12;2.75;;;0.50;;
63016;SDS011;50274;45.640;11.756;2024-01-07T00:46:38;2.22;;;0.40;;
63016;SDS011;50274;45.640;11.756;2024-01-07T00:49:04;1.57;;;0.30;;
63016;SDS011;50274;45.640;11.756;2024-01-07T00:51:29;3.15;;;0.57;;
63016;SDS011;50274;45.640;11.756;2024-01-07T00:53:55;2.37;;;0.60;;
63016;SDS011;50274;45.640;11.756;2024-01-07T00:56:21;2.83;;;0.60;;
63016;SDS011;50274;45.640;11.756;2024-01-07T00:58:50;3.53;;;0.82;;
63016;SDS011;50274;45.640;11.756;2024-01-07T01:01:16;2.90;;;0.70;;
63016;SDS011;50274;45.640;11.756;2024-01-07T01:03:41;2.30;;;0.40;;
63016;SDS011;50274;45.640;11.756;2024-01-07T01:06:07;1.70;;;0.40;;
63016;SDS011;50274;45.640;11.756;2024-01-07T01:08:33;2.70;;;0.60;;
63016;SDS011;50274;45.640;11.756;2024-01-07T01:10:59;3.60;;;0.53;;
63016;SDS011;50274;45.640;11.756;2024-01-07T01:13:24;2.67;;;0.50;;
63016;SDS011;50274;45.640;11.756;2024-01-07T01:15:50;3.35;;;0.60;;
63016;SDS011;50274;45.640;11.756;2024-01-07T01:18:17;4.57;;;0.50;;
63016;SDS011;50274;45.640;11.756;2024-01-07T01:20:43;2.17;;;0.40;;
63016;SDS011;50274;45.640;11.756;2024-01-07T01:23:09;2.80;;;0.50;;
63016;SDS011;50274;45.640;11.756;2024-01-07T01:25:34;2.57;;;0.50;;
63016;SDS011;50274;45.640;11.756;2024-01-07T01:28:01;1.85;;;0.30;;
63016;SDS011;50274;45.640;11.756;2024-01-07T01:30:26;2.30;;;0.50;;
63016;SDS011;50274;45.640;11.756;2024-01-07T01:32:55;2.88;;;0.63;;
63016;SDS011;50274;45.640;11.756;2024-01-07T01:35:21;2.07;;;0.40;;
63016;SDS011;50274;45.640;11.756;2024-01-07T01:37:47;3.30;;;0.60;;
63016;SDS011;50274;45.640;11.756;2024-01-07T01:40:13;4.33;;;1.50;;
63016;SDS011;50274;45.640;11.756;2024-01-07T01:42:42;8.85;;;4.00;;
63016;SDS011;50274;45.640;11.756;2024-01-07T01:45:08;7.20;;;3.58;;
63016;SDS011;50274;45.640;11.756;2024-01-07T01:47:34;8.73;;;4.40;;
63016;SDS011;50274;45.640;11.756;2024-01-07T01:50:00;9.53;;;5.20;;
63016;SDS011;50274;45.640;11.756;2024-01-07T01:52:27;9.45;;;5.05;;
63016;SDS011;50274;45.640;11.756;2024-01-07T01:54:53;8.18;;;5.03;;
63016;SDS011;50274;45.640;11.756;2024-01-07T01:57:19;7.30;;;4.13;;
63016;SDS011;50274;45.640;11.756;2024-01-07T01:59:47;6.67;;;3.17;;
63016;SDS011;50274;45.640;11.756;2024-01-07T02:02:14;6.25;;;2.83;;
63016;SDS011;50274;45.640;11.756;2024-01-07T02:04:40;4.43;;;1.67;;
63016;SDS011;50274;45.640;11.756;2024-01-07T02:07:06;3.90;;;1.30;;
63016;SDS011;50274;45.640;11.756;2024-01-07T02:09:31;3.50;;;1.10;;
63016;SDS011;50274;45.640;11.756;2024-01-07T02:12:04;3.17;;;0.80;;
63016;SDS011;50274;45.640;11.756;2024-01-07T02:14:30;3.00;;;0.60;;
63016;SDS011;50274;45.640;11.756;2024-01-07T02:16:56;2.53;;;0.60;;
63016;SDS011;50274;45.640;11.756;2024-01-07T02:19:22;2.57;;;0.70;;
63016;SDS011;50274;45.640;11.756;2024-01-07T02:21:51;2.90;;;0.43;;
63016;SDS011;50274;45.640;11.756;2024-01-07T02:24:18;3.00;;;0.35;;
63016;SDS011;50274;45.640;11.756;2024-01-07T02:26:44;2.13;;;0.32;;
63016;SDS011;50274;45.640;11.756;2024-01-07T02:29:10;1.87;;;0.33;;
63016;SDS011;50274;45.640;11.756;2024-01-07T02:31:36;3.22;;;0.43;;
63016;SDS011;50274;45.640;11.756;2024-01-07T02:34:01;2.30;;;0.38;;
63016;SDS011;50274;45.640;11.756;2024-01-07T02:36:27;2.50;;;0.53;;
63016;SDS011;50274;45.640;11.756;2024-01-07T02:38:53;3.60;;;0.50;;
63016;SDS011;50274;45.640;11.756;2024-01-07T02:41:19;3.30;;;0.40;;
63016;SDS011;50274;45.640;11.756;2024-01-07T02:43:46;3.42;;;0.40;;
63016;SDS011;50274;45.640;11.756;2024-01-07T02:46:12;2.00;;;0.30;;
63016;SDS011;50274;45.640;11.756;2024-01-07T02:48:39;1.75;;;0.20;;
63016;SDS011;50274;45.640;11.756;2024-01-07T02:51:06;2.60;;;0.20;;
63016;SDS011;50274;45.640;11.756;2024-01-07T02:53:33;3.38;;;0.60;;
63016;SDS011;50274;45.640;11.756;2024-01-07T02:55:59;2.33;;;0.40;;
63016;SDS011;50274;45.640;11.756;2024-01-07T02:58:25;3.28;;;0.63;;
63016;SDS011;50274;45.640;11.756;2024-01-07T03:00:51;2.73;;;0.63;;
63016;SDS011;50274;45.640;11.756;2024-01-07T03:03:17;2.25;;;0.43;;
63016;SDS011;50274;45.640;11.756;2024-01-07T03:05:42;3.80;;;0.90;;
63016;SDS011;50274;45.640;11.756;2024-01-07T03:08:08;3.22;;;0.80;;
63016;SDS011;50274;45.640;11.756;2024-01-07T03:10:34;2.60;;;0.70;;
63016;SDS011;50274;45.640;11.756;2024-01-07T03:13:00;3.07;;;0.77;;
63016;SDS011;50274;45.640;11.756;2024-01-07T03:15:26;2.90;;;0.70;;
63016;SDS011;50274;45.640;11.756;2024-01-07T03:17:52;3.00;;;0.60;;
63016;SDS011;50274;45.640;11.756;2024-01-07T03:20:18;2.47;;;0.40;;
63016;SDS011;50274;45.640;11.756;2024-01-07T03:22:43;3.47;;;0.47;;
63016;SDS011;50274;45.640;11.756;2024-01-07T03:25:09;1.70;;;0.32;;
63016;SDS011;50274;45.640;11.756;2024-01-07T03:27:35;2.27;;;0.40;;
63016;SDS011;50274;45.640;11.756;2024-01-07T03:30:01;1.90;;;0.30;;
63016;SDS011;50274;45.640;11.756;2024-01-07T03:32:27;1.20;;;0.20;;
63016;SDS011;50274;45.640;11.756;2024-01-07T03:34:53;1.48;;;0.20;;
63016;SDS011;50274;45.640;11.756;2024-01-07T03:37:19;2.53;;;0.30;;
63016;SDS011;50274;45.640;11.756;2024-01-07T03:39:46;1.45;;;0.30;;
63016;SDS011;50274;45.640;11.756;2024-01-07T03:42:12;1.58;;;0.22;;
63016;SDS011;50274;45.640;11.756;2024-01-07T03:44:38;2.33;;;0.20;;
63016;SDS011;50274;45.640;11.756;2024-01-07T03:47:05;1.30;;;0.20;;
63016;SDS011;50274;45.640;11.756;2024-01-07T03:49:31;1.83;;;0.30;;
63016;SDS011;50274;45.640;11.756;2024-01-07T03:51:57;2.90;;;0.30;;
63016;SDS011;50274;45.640;11.756;2024-01-07T03:54:23;1.70;;;0.30;;
63016;SDS011;50274;45.640;11.756;2024-01-07T03:56:49;1.30;;;0.20;;
63016;SDS011;50274;45.640;11.756;2024-01-07T03:59:14;1.50;;;0.20;;
63016;SDS011;50274;45.640;11.756;2024-01-07T04:01:40;2.25;;;0.38;;
63016;SDS011;50274;45.640;11.756;2024-01-07T04:04:06;1.30;;;0.10;;
63016;SDS011;50274;45.640;11.756;2024-01-07T04:06:32;1.48;;;0.20;;
63016;SDS011;50274;45.640;11.756;2024-01-07T04:08:58;1.58;;;0.40;;
63016;SDS011;50274;45.640;11.756;2024-01-07T04:11:23;0.90;;;0.10;;
63016;SDS011;50274;45.640;11.756;2024-01-07T04:13:49;1.25;;;0.20;;
63016;SDS011;50274;45.640;11.756;2024-01-07T04:16:18;1.40;;;0.20;;
63016;SDS011;50274;45.640;11.756;2024-01-07T04:18:45;1.50;;;0.20;;
63016;SDS011;50274;45.640;11.756;2024-01-07T04:21:12;1.75;;;0.30;;
63016;SDS011;50274;45.640;11.756;2024-01-07T04:23:38;2.72;;;0.30;;
63016;SDS011;50274;45.640;11.756;2024-01-07T04:26:08;1.60;;;0.30;;
63016;SDS011;50274;45.640;11.756;2024-01-07T04:28:34;2.07;;;0.30;;
63016;SDS011;50274;45.640;11.756;2024-01-07T04:31:00;1.85;;;0.38;;
63016;SDS011;50274;45.640;11.756;2024-01-07T04:33:26;2.70;;;0.50;;
63016;SDS011;50274;45.640;11.756;2024-01-07T04:35:52;2.20;;;0.30;;
63016;SDS011;50274;45.640;11.756;2024-01-07T04:38:22;2.23;;;0.50;;
63016;SDS011;50274;45.640;11.756;2024-01-07T04:40:49;2.25;;;0.43;;
63016;SDS011;50274;45.640;11.756;2024-01-07T04:43:16;14.70;;;3.78;;
63016;SDS011;50274;45.640;11.756;2024-01-07T04:45:42;23.77;;;7.50;;
63016;SDS011;50274;45.640;11.756;2024-01-07T04:48:08;21.13;;;7.57;;
63016;SDS011;50274;45.640;11.756;2024-01-07T04:50:33;17.10;;;5.30;;
63016;SDS011;50274;45.640;11.756;2024-01-07T04:52:59;14.68;;;4.70;;
63016;SDS011;50274;45.640;11.756;2024-01-07T04:55:25;10.70;;;3.50;;
63016;SDS011;50274;45.640;11.756;2024-01-07T04:57:51;8.85;;;2.95;;
63016;SDS011;50274;45.640;11.756;2024-01-07T05:00:17;7.22;;;2.33;;
63016;SDS011;50274;45.640;11.756;2024-01-07T05:02:43;5.47;;;1.63;;
63016;SDS011;50274;45.640;11.756;2024-01-07T05:05:08;4.93;;;1.30;;
63016;SDS011;50274;45.640;11.756;2024-01-07T05:07:34;4.10;;;1.27;;
63016;SDS011;50274;45.640;11.756;2024-01-07T05:10:00;5.00;;;1.33;;
63016;SDS011;50274;45.640;11.756;2024-01-07T05:12:26;4.65;;;2.03;;
63016;SDS011;50274;45.640;11.756;2024-01-07T05:14:52;4.20;;;1.10;;
63016;SDS011;50274;45.640;11.756;2024-01-07T05:17:18;3.37;;;0.80;;
63016;SDS011;50274;45.640;11.756;2024-01-07T05:19:43;3.53;;;0.85;;
63016;SDS011;50274;45.640;11.756;2024-01-07T05:22:09;3.30;;;0.83;;
63016;SDS011;50274;45.640;11.756;2024-01-07T05:24:38;3.00;;;0.50;;
63016;SDS011;50274;45.640;11.756;2024-01-07T05:27:04;2.67;;;0.50;;
63016;SDS011;50274;45.640;11.756;2024-01-07T05:29:31;2.00;;;0.35;;
63016;SDS011;50274;45.640;11.756;2024-01-07T05:31:58;2.85;;;0.70;;
63016;SDS011;50274;45.640;11.756;2024-01-07T05:34:28;2.20;;;0.40;;
63016;SDS011;50274;45.640;11.756;2024-01-07T05:36:54;2.60;;;0.40;;
63016;SDS011;50274;45.640;11.756;2024-01-07T05:39:19;1.88;;;0.30;;
63016;SDS011;50274;45.640;11.756;2024-01-07T05:41:46;2.55;;;0.50;;
63016;SDS011;50274;45.640;11.756;2024-01-07T05:44:12;1.47;;;0.20;;
63016;SDS011;50274;45.640;11.756;2024-01-07T05:46:38;2.95;;;0.40;;
63016;SDS011;50274;45.640;11.756;2024-01-07T05:49:05;2.05;;;0.40;;
63016;SDS011;50274;45.640;11.756;2024-01-07T05:51:31;1.97;;;0.40;;
63016;SDS011;50274;45.640;11.756;2024-01-07T05:53:56;1.65;;;0.32;;
63016;SDS011;50274;45.640;11.756;2024-01-07T05:56:22;2.05;;;0.35;;
63016;SDS011;50274;45.640;11.756;2024-01-07T05:58:48;2.07;;;0.50;;
63016;SDS011;50274;45.640;11.756;2024-01-07T06:01:20;2.22;;;0.45;;
63016;SDS011;50274;45.640;11.756;2024-01-07T06:03:47;1.73;;;0.30;;
63016;SDS011;50274;45.640;11.756;2024-01-07T06:06:13;1.52;;;0.30;;
63016;SDS011;50274;45.640;11.756;2024-01-07T06:08:42;1.90;;;0.40;;
63016;SDS011;50274;45.640;11.756;2024-01-07T06:11:08;2.28;;;0.40;;
63016;SDS011;50274;45.640;11.756;2024-01-07T06:13:36;1.45;;;0.30;;
63016;SDS011;50274;45.640;11.756;2024-01-07T06:16:01;1.50;;;0.28;;
63016;SDS011;50274;45.640;11.756;2024-01-07T06:18:27;1.80;;;0.30;;
63016;SDS011;50274;45.640;11.756;2024-01-07T06:20:53;1.38;;;0.30;;
63016;SDS011;50274;45.640;11.756;2024-01-07T06:23:19;1.25;;;0.30;;
63016;SDS011;50274;45.640;11.756;2024-01-07T06:25:45;1.37;;;0.27;;
63016;SDS011;50274;45.640;11.756;2024-01-07T06:28:10;1.92;;;0.30;;
63016;SDS011;50274;45.640;11.756;2024-01-07T06:30:36;1.53;;;0.30;;
63016;SDS011;50274;45.640;11.756;2024-01-07T06:33:02;1.23;;;0.30;;
63016;SDS011;50274;45.640;11.756;2024-01-07T06:35:28;3.28;;;0.38;;
63016;SDS011;50274;45.640;11.756;2024-01-07T06:37:55;2.35;;;0.47;;
63016;SDS011;50274;45.640;11.756;2024-01-07T06:40:21;2.77;;;0.37;;
63016;SDS011;50274;45.640;11.756;2024-01-07T06:42:48;2.08;;;0.40;;
63016;SDS011;50274;45.640;11.756;2024-01-07T06:45:14;2.33;;;0.50;;
63016;SDS011;50274;45.640;11.756;2024-01-07T06:47:42;4.15;;;0.70;;
63016;SDS011;50274;45.640;11.756;2024-01-07T06:50:08;5.60;;;1.40;;
63016;SDS011;50274;45.640;11.756;2024-01-07T06:52:35;4.82;;;1.25;;
63016;SDS011;50274;45.640;11.756;2024-01-07T06:55:01;3.97;;;1.00;;
63016;SDS011;50274;45.640;11.756;2024-01-07T06:57:27;5.40;;;0.90;;
63016;SDS011;50274;45.640;11.756;2024-01-07T06:59:52;3.95;;;0.90;;
63016;SDS011;50274;45.640;11.756;2024-01-07T07:02:19;4.83;;;0.53;;
63016;SDS011;50274;45.640;11.756;2024-01-07T07:04:46;2.20;;;0.40;;
63016;SDS011;50274;45.640;11.756;2024-01-07T07:07:13;1.90;;;0.38;;
63016;SDS011;50274;45.640;11.756;2024-01-07T07:09:39;2.40;;;0.47;;
63016;SDS011;50274;45.640;11.756;2024-01-07T07:12:05;1.95;;;0.40;;
63016;SDS011;50274;45.640;11.756;2024-01-07T07:14:32;3.20;;;0.50;;
63016;SDS011;50274;45.640;11.756;2024-01-07T07:16:58;3.00;;;0.63;;
63016;SDS011;50274;45.640;11.756;2024-01-07T07:19:24;3.05;;;0.80;;
63016;SDS011;50274;45.640;11.756;2024-01-07T07:21:50;3.80;;;1.00;;
63016;SDS011;50274;45.640;11.756;2024-01-07T07:24:16;3.60;;;1.20;;
63016;SDS011;50274;45.640;11.756;2024-01-07T07:26:41;3.70;;;1.03;;
63016;SDS011;50274;45.640;11.756;2024-01-07T07:29:10;4.28;;;1.20;;
63016;SDS011;50274;45.640;11.756;2024-01-07T07:31:36;3.65;;;1.10;;
63016;SDS011;50274;45.640;11.756;2024-01-07T07:34:05;3.40;;;0.90;;
63016;SDS011;50274;45.640;11.756;2024-01-07T07:36:34;4.30;;;1.20;;
63016;SDS011;50274;45.640;11.756;2024-01-07T07:39:00;5.28;;;1.50;;
63016;SDS011;50274;45.640;11.756;2024-01-07T07:41:25;4.93;;;1.58;;
63016;SDS011;50274;45.640;11.756;2024-01-07T07:43:51;5.83;;;1.77;;
63016;SDS011;50274;45.640;11.756;2024-01-07T07:46:17;5.47;;;2.15;;
63016;SDS011;50274;45.640;11.756;2024-01-07T07:48:43;5.47;;;2.22;;
63016;SDS011;50274;45.640;11.756;2024-01-07T07:51:09;6.43;;;2.97;;
63016;SDS011;50274;45.640;11.756;2024-01-07T07:53:37;6.50;;;3.15;;
63016;SDS011;50274;45.640;11.756;2024-01-07T07:56:05;6.35;;;3.42;;
63016;SDS011;50274;45.640;11.756;2024-01-07T07:58:31;6.63;;;2.72;;
63016;SDS011;50274;45.640;11.756;2024-01-07T08:00:57;6.87;;;3.03;;
63016;SDS011;50274;45.640;11.756;2024-01-07T08:03:23;6.30;;;2.67;;
63016;SDS011;50274;45.640;11.756;2024-01-07T08:05:49;7.82;;;2.90;;
63016;SDS011;50274;45.640;11.756;2024-01-07T08:08:15;7.67;;;3.20;;
63016;SDS011;50274;45.640;11.756;2024-01-07T08:10:42;8.98;;;3.70;;
63016;SDS011;50274;45.640;11.756;2024-01-07T08:13:08;7.90;;;3.53;;
63016;SDS011;50274;45.640;11.756;2024-01-07T08:15:34;8.77;;;3.70;;
63016;SDS011;50274;45.640;11.756;2024-01-07T08:18:00;7.23;;;3.67;;
63016;SDS011;50274;45.640;11.756;2024-01-07T08:20:28;8.80;;;4.13;;
63016;SDS011;50274;45.640;11.756;2024-01-07T08:22:54;8.57;;;4.45;;
63016;SDS011;50274;45.640;11.756;2024-01-07T08:25:20;11.60;;;4.57;;
63016;SDS011;50274;45.640;11.756;2024-01-07T08:27:46;8.07;;;4.70;;
63016;SDS011;50274;45.640;11.756;2024-01-07T08:30:12;10.45;;;5.45;;
63016;SDS011;50274;45.640;11.756;2024-01-07T08:32:38;9.30;;;4.80;;
63016;SDS011;50274;45.640;11.756;2024-01-07T08:35:14;6.78;;;4.10;;
63016;SDS011;50274;45.640;11.756;2024-01-07T08:37:40;7.70;;;3.60;;
63016;SDS011;50274;45.640;11.756;2024-01-07T08:40:06;6.05;;;3.20;;
63016;SDS011;50274;45.640;11.756;2024-01-07T08:42:34;5.00;;;2.25;;
63016;SDS011;50274;45.640;11.756;2024-01-07T08:45:01;5.10;;;2.20;;
63016;SDS011;50274;45.640;11.756;2024-01-07T08:47:29;5.20;;;2.07;;
63016;SDS011;50274;45.640;11.756;2024-01-07T08:49:56;6.25;;;2.67;;
63016;SDS011;50274;45.640;11.756;2024-01-07T08:52:22;6.05;;;2.97;;
63016;SDS011;50274;45.640;11.756;2024-01-07T08:54:48;8.27;;;3.40;;
63016;SDS011;50274;45.640;11.756;2024-01-07T08:57:14;8.93;;;4.10;;
63016;SDS011;50274;45.640;11.756;2024-01-07T08:59:40;8.93;;;4.38;;
63016;SDS011;50274;45.640;11.756;2024-01-07T09:02:06;8.65;;;4.45;;
63016;SDS011;50274;45.640;11.756;2024-01-07T09:04:32;9.73;;;5.27;;
63016;SDS011;50274;45.640;11.756;2024-01-07T09:06:58;10.05;;;4.65;;
63016;SDS011;50274;45.640;11.756;2024-01-07T09:09:25;9.93;;;5.00;;
63016;SDS011;50274;45.640;11.756;2024-01-07T09:11:52;8.15;;;4.43;;
63016;SDS011;50274;45.640;11.756;2024-01-07T09:14:17;9.85;;;5.10;;
63016;SDS011;50274;45.640;11.756;2024-01-07T09:16:44;10.23;;;4.80;;
63016;SDS011;50274;45.640;11.756;2024-01-07T09:19:09;9.35;;;5.03;;
63016;SDS011;50274;45.640;11.756;2024-01-07T09:21:37;9.32;;;4.35;;
63016;SDS011;50274;45.640;11.756;2024-01-07T09:24:03;8.90;;;4.60;;
63016;SDS011;50274;45.640;11.756;2024-01-07T09:26:29;8.68;;;4.22;;
63016;SDS011;50274;45.640;11.756;2024-01-07T09:28:55;9.63;;;4.70;;
63016;SDS011;50274;45.640;11.756;2024-01-07T09:31:21;8.10;;;4.40;;
63016;SDS011;50274;45.640;11.756;2024-01-07T09:33:47;8.87;;;4.90;;
63016;SDS011;50274;45.640;11.756;2024-01-07T09:36:13;9.00;;;4.97;;
63016;SDS011;50274;45.640;11.756;2024-01-07T09:38:39;8.33;;;4.30;;
63016;SDS011;50274;45.640;11.756;2024-01-07T09:41:05;7.85;;;4.13;;
63016;SDS011;50274;45.640;11.756;2024-01-07T09:43:31;7.32;;;3.53;;
63016;SDS011;50274;45.640;11.756;2024-01-07T09:45:57;6.65;;;3.83;;
63016;SDS011;50274;45.640;11.756;2024-01-07T09:48:24;6.57;;;3.50;;
63016;SDS011;50274;45.640;11.756;2024-01-07T09:50:51;7.00;;;3.20;;
63016;SDS011;50274;45.640;11.756;2024-01-07T09:53:26;6.57;;;3.10;;
63016;SDS011;50274;45.640;11.756;2024-01-07T09:58:46;6.18;;;2.70;;
63016;SDS011;50274;45.640;11.756;2024-01-07T10:01:18;5.37;;;2.60;;
63016;SDS011;50274;45.640;11.756;2024-01-07T10:03:44;6.22;;;2.65;;
63016;SDS011;50274;45.640;11.756;2024-01-07T10:06:10;5.22;;;2.45;;
63016;SDS011;50274;45.640;11.756;2024-01-07T10:08:37;6.47;;;3.03;;
63016;SDS011;50274;45.640;11.756;2024-01-07T10:11:03;7.20;;;3.00;;
63016;SDS011;50274;45.640;11.756;2024-01-07T10:13:30;7.67;;;3.17;;
63016;SDS011;50274;45.640;11.756;2024-01-07T10:15:56;6.65;;;3.10;;
63016;SDS011;50274;45.640;11.756;2024-01-07T10:18:22;6.35;;;2.83;;
63016;SDS011;50274;45.640;11.756;2024-01-07T10:20:48;6.07;;;3.00;;
63016;SDS011;50274;45.640;11.756;2024-01-07T10:23:20;6.50;;;3.20;;
63016;SDS011;50274;45.640;11.756;2024-01-07T10:25:46;8.35;;;3.78;;
63016;SDS011;50274;45.640;11.756;2024-01-07T10:28:12;10.18;;;4.63;;
63016;SDS011;50274;45.640;11.756;2024-01-07T10:30:39;8.93;;;4.47;;
63016;SDS011;50274;45.640;11.756;2024-01-07T10:33:05;9.77;;;4.87;;
63016;SDS011;50274;45.640;11.756;2024-01-07T10:35:33;7.93;;;4.25;;
63016;SDS011;50274;45.640;11.756;2024-01-07T10:38:00;7.13;;;3.47;;
63016;SDS011;50274;45.640;11.756;2024-01-07T10:40:27;6.65;;;3.20;;
63016;SDS011;50274;45.640;11.756;2024-01-07T10:42:56;6.82;;;3.33;;
63016;SDS011;50274;45.640;11.756;2024-01-07T10:45:23;7.20;;;3.67;;
63016;SDS011;50274;45.640;11.756;2024-01-07T10:47:49;9.40;;;4.55;;
63016;SDS011;50274;45.640;11.756;2024-01-07T10:50:19;7.82;;;4.32;;
63016;SDS011;50274;45.640;11.756;2024-01-07T10:52:50;8.98;;;4.82;;
63016;SDS011;50274;45.640;11.756;2024-01-07T10:55:20;10.05;;;5.50;;
63016;SDS011;50274;45.640;11.756;2024-01-07T10:57:51;12.00;;;6.50;;
63016;SDS011;50274;45.640;11.756;2024-01-07T11:00:21;13.18;;;7.18;;
63016;SDS011;50274;45.640;11.756;2024-01-07T11:05:23;12.48;;;6.50;;
63016;SDS011;50274;45.640;11.756;2024-01-07T11:08:20;9.63;;;5.70;;
63016;SDS011;50274;45.640;11.756;2024-01-07T11:11:04;9.17;;;5.10;;
63016;SDS011;50274;45.640;11.756;2024-01-07T11:13:33;7.00;;;4.38;;
63016;SDS011;50274;45.640;11.756;2024-01-07T11:16:07;8.32;;;4.00;;
63016;SDS011;50274;45.640;11.756;2024-01-07T11:18:46;7.97;;;3.85;;
63016;SDS011;50274;45.640;11.756;2024-01-07T11:21:22;8.02;;;3.85;;
63016;SDS011;50274;45.640;11.756;2024-01-07T11:23:49;6.50;;;3.43;;
63016;SDS011;50274;45.640;11.756;2024-01-07T11:26:17;6.72;;;3.90;;
63016;SDS011;50274;45.640;11.756;2024-01-07T11:28:55;7.80;;;4.30;;
63016;SDS011;50274;45.640;11.756;2024-01-07T11:34:09;10.17;;;5.17;;
63016;SDS011;50274;45.640;11.756;2024-01-07T11:36:36;9.63;;;5.22;;
63016;SDS011;50274;45.640;11.756;2024-01-07T11:39:02;9.43;;;5.10;;
63016;SDS011;50274;45.640;11.756;2024-01-07T11:41:38;9.75;;;5.50;;
63016;SDS011;50274;45.640;11.756;2024-01-07T11:44:05;8.95;;;4.95;;
63016;SDS011;50274;45.640;11.756;2024-01-07T11:46:31;9.40;;;4.87;;
63016;SDS011;50274;45.640;11.756;2024-01-07T11:48:57;9.05;;;4.82;;
63016;SDS011;50274;45.640;11.756;2024-01-07T11:51:33;7.75;;;4.18;;
63016;SDS011;50274;45.640;11.756;2024-01-07T11:54:00;7.97;;;4.03;;
63016;SDS011;50274;45.640;11.756;2024-01-07T11:56:26;7.45;;;4.00;;
63016;SDS011;50274;45.640;11.756;2024-01-07T11:58:53;7.20;;;3.92;;
63016;SDS011;50274;45.640;11.756;2024-01-07T12:01:21;7.50;;;3.85;;
63016;SDS011;50274;45.640;11.756;2024-01-07T12:03:47;9.10;;;4.30;;
63016;SDS011;50274;45.640;11.756;2024-01-07T12:06:13;8.02;;;3.90;;
63016;SDS011;50274;45.640;11.756;2024-01-07T12:08:40;8.18;;;3.95;;
63016;SDS011;50274;45.640;11.756;2024-01-07T12:11:07;6.38;;;3.42;;
63016;SDS011;50274;45.640;11.756;2024-01-07T12:13:36;6.77;;;3.30;;
63016;SDS011;50274;45.640;11.756;2024-01-07T12:16:02;7.40;;;3.58;;
63016;SDS011;50274;45.640;11.756;2024-01-07T12:18:29;6.35;;;3.42;;
63016;SDS011;50274;45.640;11.756;2024-01-07T12:21:00;6.10;;;3.40;;
63016;SDS011;50274;45.640;11.756;2024-01-07T12:23:26;6.40;;;3.35;;
63016;SDS011;50274;45.640;11.756;2024-01-07T12:26:06;7.00;;;3.60;;
63016;SDS011;50274;45.640;11.756;2024-01-07T12:28:53;6.97;;;3.00;;
63016;SDS011;50274;45.640;11.756;2024-01-07T12:31:21;6.85;;;3.80;;
63016;SDS011;50274;45.640;11.756;2024-01-07T12:33:47;7.70;;;4.30;;
63016;SDS011;50274;45.640;11.756;2024-01-07T12:36:13;8.10;;;4.63;;
63016;SDS011;50274;45.640;11.756;2024-01-07T12:38:40;8.60;;;4.60;;
63016;SDS011;50274;45.640;11.756;2024-01-07T12:41:11;10.13;;;5.03;;
63016;SDS011;50274;45.640;11.756;2024-01-07T12:43:43;9.60;;;5.18;;
63016;SDS011;50274;45.640;11.756;2024-01-07T12:46:08;11.98;;;5.65;;
63016;SDS011;50274;45.640;11.756;2024-01-07T12:48:34;10.47;;;5.53;;
63016;SDS011;50274;45.640;11.756;2024-01-07T12:51:00;11.40;;;6.20;;
63016;SDS011;50274;45.640;11.756;2024-01-07T12:53:26;10.13;;;5.80;;
63016;SDS011;50274;45.640;11.756;2024-01-07T12:55:52;10.87;;;6.07;;
63016;SDS011;50274;45.640;11.756;2024-01-07T12:58:18;10.45;;;6.22;;
63016;SDS011;50274;45.640;11.756;2024-01-07T13:00:46;11.07;;;6.45;;
63016;SDS011;50274;45.640;11.756;2024-01-07T13:03:12;10.75;;;5.40;;
63016;SDS011;50274;45.640;11.756;2024-01-07T13:05:44;9.80;;;5.87;;
63016;SDS011;50274;45.640;11.756;2024-01-07T13:08:11;8.98;;;5.20;;
63016;SDS011;50274;45.640;11.756;2024-01-07T13:10:38;9.00;;;5.38;;
63016;SDS011;50274;45.640;11.756;2024-01-07T13:13:04;11.73;;;5.40;;
63016;SDS011;50274;45.640;11.756;2024-01-07T13:15:30;8.75;;;4.72;;
63016;SDS011;50274;45.640;11.756;2024-01-07T13:17:56;8.47;;;5.00;;
63016;SDS011;50274;45.640;11.756;2024-01-07T13:20:22;9.68;;;5.00;;
63016;SDS011;50274;45.640;11.756;2024-01-07T13:22:49;10.10;;;5.93;;
63016;SDS011;50274;45.640;11.756;2024-01-07T13:25:15;10.20;;;5.57;;
63016;SDS011;50274;45.640;11.756;2024-01-07T13:27:40;10.13;;;5.95;;
63016;SDS011;50274;45.640;11.756;2024-01-07T13:30:07;10.07;;;5.23;;
63016;SDS011;50274;45.640;11.756;2024-01-07T13:32:34;9.25;;;5.13;;
63016;SDS011;50274;45.640;11.756;2024-01-07T13:35:02;7.63;;;4.20;;
63016;SDS011;50274;45.640;11.756;2024-01-07T13:37:28;8.68;;;4.97;;
63016;SDS011;50274;45.640;11.756;2024-01-07T13:39:57;10.10;;;6.13;;
63016;SDS011;50274;45.640;11.756;2024-01-07T13:42:26;11.27;;;6.73;;
63016;SDS011;50274;45.640;11.756;2024-01-07T13:44:54;11.52;;;5.80;;
63016;SDS011;50274;45.640;11.756;2024-01-07T13:47:25;9.85;;;5.78;;
63016;SDS011;50274;45.640;11.756;2024-01-07T13:49:55;10.65;;;6.10;;
63016;SDS011;50274;45.640;11.756;2024-01-07T13:52:24;10.48;;;6.10;;
63016;SDS011;50274;45.640;11.756;2024-01-07T13:54:54;11.70;;;6.80;;
63016;SDS011;50274;45.640;11.756;2024-01-07T13:57:20;9.90;;;5.43;;
63016;SDS011;50274;45.640;11.756;2024-01-07T13:59:53;10.30;;;5.85;;
63016;SDS011;50274;45.640;11.756;2024-01-07T14:02:20;9.98;;;6.00;;
63016;SDS011;50274;45.640;11.756;2024-01-07T14:04:47;7.83;;;4.90;;
63016;SDS011;50274;45.640;11.756;2024-01-07T14:07:16;9.68;;;5.30;;
63016;SDS011;50274;45.640;11.756;2024-01-07T14:09:44;9.32;;;5.32;;
63016;SDS011;50274;45.640;11.756;2024-01-07T14:12:11;7.97;;;5.05;;
63016;SDS011;50274;45.640;11.756;2024-01-07T14:14:36;8.83;;;5.10;;
63016;SDS011;50274;45.640;11.756;2024-01-07T14:17:02;8.43;;;4.47;;
63016;SDS011;50274;45.640;11.756;2024-01-07T14:19:28;7.85;;;4.25;;
63016;SDS011;50274;45.640;11.756;2024-01-07T14:21:54;8.93;;;4.93;;
63016;SDS011;50274;45.640;11.756;2024-01-07T14:24:21;8.68;;;5.18;;
63016;SDS011;50274;45.640;11.756;2024-01-07T14:26:47;9.45;;;4.78;;
63016;SDS011;50274;45.640;11.756;2024-01-07T14:29:12;8.93;;;5.17;;
63016;SDS011;50274;45.640;11.756;2024-01-07T14:31:38;10.85;;;6.10;;
63016;SDS011;50274;45.640;11.756;2024-01-07T14:34:04;11.03;;;6.43;;
63016;SDS011;50274;45.640;11.756;2024-01-07T14:36:30;10.37;;;6.97;;
63016;SDS011;50274;45.640;11.756;2024-01-07T14:38:56;9.55;;;6.03;;